Time;durP1;ratioP1;P1;durP2;ratioP2;P2;SDS_P1;SDS_P2;PMS_P1;PMS_P2;Temp;Humidity;BMP_temperature;BMP_pressure;BME280_temperature;BME280_humidity;BME280_pressure;Samples;Min_cycle;Max_cycle;Signal;HPM_P1;HPM_P2
2021/05/09 00:01:27;;;;;;;5.43;2.70;;;11.10;79.00;;;;;;5051781;28;20025;-69
2021/05/09 00:03:54;;;;;;;4.40;2.72;;;11.20;79.20;;;;;;5051995;28;20032;-69
2021/05/09 00:06:20;;;;;;;4.32;2.25;;;11.10;79.40;;;;;;5051403;28;20060;-69
2021/05/09 00:08:46;;;;;;;3.78;2.33;;;11.10;79.10;;;;;;5050333;28;20055;-70
2021/05/09 00:11:12;;;;;;;5.35;2.42;;;11.20;79.00;;;;;;5054308;28;20041;-69
2021/05/09 00:13:38;;;;;;;4.15;2.47;;;11.20;79.00;;;;;;5055065;28;20032;-69
2021/05/09 00:16:05;;;;;;;4.38;2.45;;;11.20;79.30;;;;;;5054616;28;20032;-70
2021/05/09 00:18:31;;;;;;;3.28;2.50;;;11.10;79.40;;;;;;5055168;28;20039;-69
2021/05/09 00:20:57;;;;;;;3.90;2.50;;;11.10;79.50;;;;;;5053892;28;20029;-69
2021/05/09 00:23:23;;;;;;;3.95;2.47;;;11.10;79.70;;;;;;5053168;28;20342;-69
2021/05/09 00:25:49;;;;;;;5.45;2.55;;;11.10;79.80;;;;;;5053868;28;20457;-69
2021/05/09 00:28:14;;;;;;;3.63;2.25;;;10.90;80.00;;;;;;5054394;28;20029;-69
2021/05/09 00:30:40;;;;;;;6.15;3.00;;;10.90;80.30;;;;;;5054939;28;20029;-69
2021/05/09 00:33:06;;;;;;;4.60;2.78;;;11.00;80.20;;;;;;5054067;28;20021;-70
2021/05/09 00:35:31;;;;;;;5.20;2.97;;;11.00;80.20;;;;;;5054564;28;20470;-69
2021/05/09 00:37:57;;;;;;;4.25;2.70;;;11.00;80.10;;;;;;5054702;28;20025;-69
2021/05/09 00:40:23;;;;;;;4.80;3.05;;;11.00;80.00;;;;;;5052703;28;20060;-69
2021/05/09 00:42:48;;;;;;;4.78;2.95;;;10.90;79.90;;;;;;5053630;28;20021;-69
2021/05/09 00:45:14;;;;;;;5.18;2.90;;;11.00;79.90;;;;;;5054098;28;20025;-69
2021/05/09 00:47:40;;;;;;;4.38;2.90;;;10.90;80.00;;;;;;5053561;28;20032;-69
2021/05/09 00:50:06;;;;;;;5.60;3.10;;;11.00;79.80;;;;;;5052573;28;20465;-70
2021/05/09 00:52:35;;;;;;;6.22;3.22;;;10.90;80.00;;;;;;5053248;28;20466;-69
2021/05/09 00:55:04;;;;;;;8.65;3.67;;;10.90;79.90;;;;;;5054782;28;20032;-69
2021/05/09 00:57:34;;;;;;;4.82;3.17;;;10.90;79.90;;;;;;5054140;28;20385;-69
2021/05/09 01:00:01;;;;;;;3.72;2.78;;;10.90;79.90;;;;;;5054412;28;20033;-69
2021/05/09 01:02:28;;;;;;;3.97;2.40;;;10.90;79.80;;;;;;5052562;28;20382;-69
2021/05/09 01:04:55;;;;;;;4.30;2.65;;;10.90;79.90;;;;;;5054363;28;20029;-70
2021/05/09 01:07:21;;;;;;;3.20;2.20;;;11.00;79.60;;;;;;5053698;28;20032;-69
2021/05/09 01:09:47;;;;;;;5.30;2.20;;;11.00;79.30;;;;;;5052730;28;20132;-69
2021/05/09 01:12:14;;;;;;;3.40;2.35;;;11.10;79.30;;;;;;5051956;28;20402;-69
2021/05/09 01:14:40;;;;;;;3.05;2.15;;;11.00;79.80;;;;;;5052814;28;20120;-69
2021/05/09 01:17:07;;;;;;;3.70;2.40;;;11.10;79.80;;;;;;5053597;28;20047;-74
2021/05/09 01:19:36;;;;;;;3.72;2.33;;;11.10;79.60;;;;;;5054308;28;20489;-69
2021/05/09 01:22:09;;;;;;;3.17;2.50;;;11.10;79.60;;;;;;5051549;28;20037;-69
2021/05/09 01:24:34;;;;;;;3.70;2.40;;;11.20;79.20;;;;;;5052771;28;20388;-69
2021/05/09 01:27:02;;;;;;;4.20;2.20;;;11.30;79.00;;;;;;5052336;28;20112;-69
2021/05/09 01:29:27;;;;;;;4.45;2.65;;;11.30;78.70;;;;;;5053093;28;20037;-69
2021/05/09 01:31:53;;;;;;;3.78;2.50;;;11.30;78.20;;;;;;5052685;28;20511;-69
2021/05/09 01:34:19;;;;;;;3.83;2.33;;;11.30;78.20;;;;;;5053444;28;20056;-69
2021/05/09 01:36:45;;;;;;;4.32;2.42;;;11.40;78.30;;;;;;5053665;28;20355;-70
2021/05/09 01:39:10;;;;;;;4.70;2.60;;;11.40;78.00;;;;;;5052666;28;20414;-70
2021/05/09 01:41:36;;;;;;;4.22;2.47;;;11.30;78.00;;;;;;5052327;28;20067;-69
2021/05/09 01:44:02;;;;;;;4.88;2.90;;;11.30;77.90;;;;;;5052228;28;20028;-69
2021/05/09 01:46:27;;;;;;;4.82;2.92;;;11.30;78.10;;;;;;5051643;28;20286;-69
2021/05/09 01:48:53;;;;;;;4.07;2.67;;;11.30;78.60;;;;;;5053335;28;20159;-69
2021/05/09 01:51:19;;;;;;;4.63;2.35;;;11.30;78.90;;;;;;5052509;28;20466;-69
2021/05/09 01:53:46;;;;;;;5.45;2.63;;;11.20;78.80;;;;;;5053371;28;20107;-69
2021/05/09 01:56:14;;;;;;;4.85;2.95;;;11.30;79.00;;;;;;5051390;28;20363;-69
2021/05/09 01:58:39;;;;;;;5.68;2.88;;;11.20;79.20;;;;;;5053292;28;20017;-69
2021/05/09 02:01:05;;;;;;;4.88;2.80;;;11.20;79.20;;;;;;5051997;28;20537;-69
2021/05/09 02:03:31;;;;;;;3.33;2.53;;;11.20;79.20;;;;;;5051325;28;20458;-69
2021/05/09 02:05:56;;;;;;;6.60;3.20;;;11.30;79.20;;;;;;5051866;28;20058;-69
2021/05/09 02:08:22;;;;;;;6.18;2.85;;;11.20;79.00;;;;;;5051202;28;20442;-69
2021/05/09 02:10:48;;;;;;;4.90;2.80;;;11.30;79.10;;;;;;5051747;28;20532;-69
2021/05/09 02:13:14;;;;;;;5.03;3.05;;;11.30;79.20;;;;;;5051177;28;20070;-70
2021/05/09 02:15:40;;;;;;;3.38;2.55;;;11.30;79.20;;;;;;5051998;28;20028;-69
2021/05/09 02:18:05;;;;;;;4.93;2.70;;;11.30;79.00;;;;;;5051683;28;20025;-69
2021/05/09 02:20:31;;;;;;;4.15;3.17;;;11.30;79.10;;;;;;5052350;28;20044;-69
2021/05/09 02:22:57;;;;;;;3.95;2.83;;;11.30;79.40;;;;;;5051640;28;20021;-69
2021/05/09 02:25:22;;;;;;;4.35;2.85;;;11.40;79.40;;;;;;5052173;28;20029;-69
2021/05/09 02:27:48;;;;;;;4.18;2.45;;;11.40;79.30;;;;;;5051490;28;20025;-69
2021/05/09 02:30:14;;;;;;;4.85;2.83;;;11.40;79.20;;;;;;5050858;28;20501;-70
2021/05/09 02:32:40;;;;;;;3.33;2.67;;;11.40;79.30;;;;;;5051198;28;20021;-70
2021/05/09 02:35:06;;;;;;;4.72;2.80;;;11.40;78.70;;;;;;5052707;28;20170;-69
2021/05/09 02:37:31;;;;;;;5.15;2.75;;;11.30;78.80;;;;;;5052016;28;20029;-69
2021/05/09 02:39:57;;;;;;;4.72;2.80;;;11.30;79.00;;;;;;5050988;28;20041;-69
2021/05/09 02:42:22;;;;;;;5.25;2.67;;;11.30;78.80;;;;;;5050698;28;20039;-69
2021/05/09 02:44:48;;;;;;;3.90;2.60;;;11.20;79.60;;;;;;5052627;28;20032;-69
2021/05/09 02:47:27;;;;;;;4.68;2.55;;;11.30;79.70;;;;;;5052261;28;20461;-69
2021/05/09 02:49:58;;;;;;;3.78;2.50;;;11.30;80.60;;;;;;5052425;28;20075;-69
2021/05/09 02:52:24;;;;;;;3.95;2.45;;;11.30;79.50;;;;;;5050704;28;20028;-69
2021/05/09 02:54:49;;;;;;;4.63;2.58;;;11.20;79.80;;;;;;5051125;28;20436;-69
2021/05/09 02:57:15;;;;;;;3.60;2.58;;;11.20;79.70;;;;;;5051757;28;20051;-69
2021/05/09 02:59:41;;;;;;;6.05;2.70;;;11.20;79.00;;;;;;5051147;28;20451;-69
2021/05/09 03:02:07;;;;;;;4.78;2.60;;;11.20;79.30;;;;;;5051018;28;20390;-69
2021/05/09 03:04:32;;;;;;;3.60;2.63;;;11.20;79.40;;;;;;5051710;28;20051;-69
2021/05/09 03:06:58;;;;;;;4.95;3.00;;;11.20;79.40;;;;;;5052007;28;20033;-69
2021/05/09 03:09:24;;;;;;;4.75;2.58;;;11.10;79.20;;;;;;5050124;28;20037;-69
2021/05/09 03:11:49;;;;;;;4.88;3.13;;;11.10;79.30;;;;;;5052254;28;20033;-69
2021/05/09 03:14:15;;;;;;;4.72;3.40;;;11.00;79.40;;;;;;5050366;28;20047;-69
2021/05/09 03:16:40;;;;;;;4.55;3.08;;;11.00;79.80;;;;;;5051965;28;20021;-69
2021/05/09 03:19:06;;;;;;;5.75;2.83;;;11.00;80.20;;;;;;5052194;28;20474;-69
2021/05/09 03:21:31;;;;;;;4.78;2.72;;;11.00;80.70;;;;;;5051572;28;20112;-69
2021/05/09 03:23:57;;;;;;;4.38;3.20;;;11.00;81.00;;;;;;5050985;28;20021;-69
2021/05/09 03:26:23;;;;;;;5.10;3.05;;;11.00;81.40;;;;;;5051191;28;20025;-69
2021/05/09 03:28:48;;;;;;;3.85;2.63;;;11.10;81.30;;;;;;5051924;28;20025;-69
2021/05/09 03:31:14;;;;;;;5.40;3.05;;;11.00;81.40;;;;;;5050785;28;20048;-69
2021/05/09 03:33:39;;;;;;;7.25;3.17;;;11.00;81.70;;;;;;5050474;28;20366;-69
2021/05/09 03:36:05;;;;;;;4.45;3.10;;;11.00;81.80;;;;;;5052042;28;20025;-69
2021/05/09 03:38:31;;;;;;;4.65;2.78;;;11.00;81.90;;;;;;5050030;28;20036;-69
2021/05/09 03:40:57;;;;;;;5.95;2.88;;;11.00;82.50;;;;;;5050526;28;20048;-69
2021/05/09 03:43:22;;;;;;;4.18;3.00;;;10.90;83.00;;;;;;5050139;28;20367;-69
2021/05/09 03:45:48;;;;;;;4.82;3.05;;;10.90;82.80;;;;;;5055180;28;20159;-69
2021/05/09 03:48:14;;;;;;;5.95;3.20;;;10.90;83.00;;;;;;5054499;28;20028;-69
2021/05/09 03:50:39;;;;;;;4.75;3.00;;;10.90;83.10;;;;;;5053720;28;20531;-69
2021/05/09 03:53:05;;;;;;;4.65;2.88;;;10.90;83.10;;;;;;5054529;28;20029;-69
2021/05/09 03:55:31;;;;;;;4.80;3.25;;;10.90;82.80;;;;;;5053711;28;20445;-69
2021/05/09 03:57:56;;;;;;;3.55;2.60;;;10.80;83.30;;;;;;5054357;28;20025;-69
2021/05/09 04:00:22;;;;;;;4.38;3.08;;;10.90;83.10;;;;;;5053675;28;20120;-69
2021/05/09 04:02:48;;;;;;;4.75;3.13;;;10.90;82.60;;;;;;5054157;28;20025;-69
2021/05/09 04:05:14;;;;;;;5.70;2.92;;;10.90;82.50;;;;;;5055454;28;20029;-69
2021/05/09 04:07:39;;;;;;;6.45;3.10;;;10.90;82.60;;;;;;5053525;28;20363;-69
2021/05/09 04:10:06;;;;;;;6.40;3.22;;;10.80;82.90;;;;;;5053945;28;20087;-69
2021/05/09 04:12:32;;;;;;;4.82;2.90;;;10.80;83.20;;;;;;5053443;28;20082;-69
2021/05/09 04:14:58;;;;;;;4.55;2.78;;;10.80;83.50;;;;;;5054965;28;20025;-69
2021/05/09 04:17:24;;;;;;;3.38;2.80;;;10.80;83.60;;;;;;5053303;28;20504;-69
2021/05/09 04:19:49;;;;;;;4.38;3.10;;;10.80;83.80;;;;;;5055298;28;20025;-69
2021/05/09 04:22:15;;;;;;;4.25;2.88;;;11.00;83.60;;;;;;5055103;28;20355;-69
2021/05/09 04:24:40;;;;;;;4.35;2.65;;;11.00;83.40;;;;;;5054200;28;20397;-69
2021/05/09 04:27:06;;;;;;;5.28;3.72;;;11.00;82.60;;;;;;5055052;28;20479;-69
2021/05/09 04:29:32;;;;;;;6.88;3.00;;;11.00;82.90;;;;;;5053995;28;20051;-69
2021/05/09 04:31:57;;;;;;;4.50;3.13;;;11.00;83.30;;;;;;5053693;28;20033;-69
2021/05/09 04:34:23;;;;;;;4.43;3.00;;;11.10;83.00;;;;;;5053005;28;20470;-69
2021/05/09 04:36:49;;;;;;;4.70;3.35;;;11.10;83.20;;;;;;5054877;28;20029;-69
2021/05/09 04:39:14;;;;;;;6.13;3.47;;;11.00;82.90;;;;;;5053237;28;20029;-70
2021/05/09 04:41:40;;;;;;;4.55;3.38;;;11.00;83.30;;;;;;5052993;28;20041;-69
2021/05/09 04:44:06;;;;;;;5.45;3.63;;;11.00;83.30;;;;;;5053513;28;20025;-69
2021/05/09 04:46:31;;;;;;;3.78;3.03;;;10.90;83.20;;;;;;5052747;28;20029;-69
2021/05/09 04:48:57;;;;;;;6.70;2.75;;;11.00;83.30;;;;;;5053358;28;20029;-69
2021/05/09 04:51:23;;;;;;;6.53;3.05;;;10.90;83.80;;;;;;5052707;28;20037;-69
2021/05/09 04:53:48;;;;;;;5.85;3.35;;;10.90;84.20;;;;;;5054629;28;20514;-69
2021/05/09 04:56:17;;;;;;;4.50;3.42;;;11.00;84.20;;;;;;5053076;28;20433;-69
2021/05/09 04:58:43;;;;;;;5.75;3.10;;;11.00;83.90;;;;;;5052551;28;20025;-69
2021/05/09 05:01:11;;;;;;;4.95;3.30;;;11.00;83.70;;;;;;5053124;28;20040;-69
2021/05/09 05:03:37;;;;;;;5.80;3.20;;;11.00;83.70;;;;;;5053775;28;20441;-69
2021/05/09 05:06:04;;;;;;;4.78;2.92;;;11.00;84.00;;;;;;5053137;28;20123;-69
2021/05/09 05:08:32;;;;;;;6.30;3.25;;;11.00;83.80;;;;;;5052325;28;20453;-69
2021/05/09 05:10:58;;;;;;;4.72;3.00;;;11.10;83.80;;;;;;5053995;28;20375;-69
2021/05/09 05:13:28;;;;;;;6.15;3.55;;;11.10;83.90;;;;;;5052338;28;20469;-69
2021/05/09 05:15:56;;;;;;;5.57;3.10;;;11.10;84.40;;;;;;5053112;28;20083;-69
2021/05/09 05:18:23;;;;;;;6.10;3.25;;;11.00;84.10;;;;;;5052254;28;20029;-70
2021/05/09 05:20:50;;;;;;;7.22;3.60;;;11.00;84.10;;;;;;5052746;28;20047;-69
2021/05/09 05:23:16;;;;;;;4.50;2.95;;;11.00;84.20;;;;;;5052682;28;20489;-69
2021/05/09 05:25:42;;;;;;;5.28;3.30;;;11.10;83.90;;;;;;5052107;28;20029;-69
2021/05/09 05:28:08;;;;;;;4.78;2.90;;;11.20;83.70;;;;;;5053878;28;20021;-69
2021/05/09 05:30:34;;;;;;;5.60;3.50;;;11.20;83.80;;;;;;5051886;28;20041;-69
2021/05/09 05:33:00;;;;;;;4.35;3.08;;;11.20;84.10;;;;;;5052478;28;20021;-69
2021/05/09 05:35:27;;;;;;;4.70;3.20;;;11.30;83.90;;;;;;5051610;28;20028;-69
2021/05/09 05:37:53;;;;;;;4.32;3.40;;;11.30;84.00;;;;;;5052583;28;20033;-69
2021/05/09 05:40:20;;;;;;;5.80;3.28;;;11.30;84.60;;;;;;5051860;28;20053;-69
2021/05/09 05:42:45;;;;;;;4.57;3.17;;;11.40;84.50;;;;;;5051783;28;20035;-69
2021/05/09 05:45:11;;;;;;;6.45;3.30;;;11.40;84.80;;;;;;5053305;28;20108;-69
2021/05/09 05:47:37;;;;;;;5.78;3.33;;;11.50;84.50;;;;;;5051696;28;20025;-70
2021/05/09 05:50:05;;;;;;;4.93;3.10;;;11.50;84.10;;;;;;5053094;28;20033;-69
2021/05/09 05:52:30;;;;;;;5.47;2.55;;;11.50;84.10;;;;;;5051539;28;20059;-69
2021/05/09 05:54:56;;;;;;;4.00;2.83;;;11.50;83.10;;;;;;5053381;28;20389;-69
2021/05/09 05:57:22;;;;;;;3.97;2.80;;;11.50;82.70;;;;;;5053365;28;20531;-69
2021/05/09 05:59:47;;;;;;;5.15;2.50;;;11.60;82.60;;;;;;5051478;28;20028;-70
2021/05/09 06:02:13;;;;;;;3.65;2.60;;;11.60;82.50;;;;;;5052066;28;20412;-70
2021/05/09 06:04:40;;;;;;;3.10;2.40;;;11.70;82.60;;;;;;5051292;28;20480;-70
2021/05/09 06:07:07;;;;;;;3.60;2.60;;;11.80;82.30;;;;;;5052541;28;20024;-69
2021/05/09 06:09:33;;;;;;;4.43;2.58;;;11.70;82.40;;;;;;5051100;28;20048;-69
2021/05/09 06:11:59;;;;;;;5.00;2.72;;;11.80;82.10;;;;;;5051801;28;20040;-70
2021/05/09 06:14:25;;;;;;;3.95;2.55;;;11.80;81.90;;;;;;5051192;28;20029;-70
2021/05/09 06:16:51;;;;;;;3.70;2.38;;;11.90;82.30;;;;;;5051308;28;20032;-70
2021/05/09 06:19:17;;;;;;;6.15;2.67;;;11.90;82.40;;;;;;5051587;28;20083;-70
2021/05/09 06:21:42;;;;;;;4.55;2.28;;;11.90;82.00;;;;;;5052068;28;20033;-70
2021/05/09 06:24:08;;;;;;;3.58;2.60;;;12.00;81.90;;;;;;5051547;28;20442;-70
2021/05/09 06:26:34;;;;;;;2.80;2.42;;;12.00;82.20;;;;;;5050991;28;20075;-70
2021/05/09 06:29:00;;;;;;;3.95;2.50;;;12.10;82.40;;;;;;5051502;28;20409;-70
2021/05/09 06:31:25;;;;;;;4.32;2.55;;;12.20;82.50;;;;;;5050795;28;20044;-72
2021/05/09 06:33:51;;;;;;;2.70;2.45;;;12.20;82.40;;;;;;5051566;28;20025;-70
2021/05/09 06:36:16;;;;;;;3.63;2.25;;;12.20;81.70;;;;;;5052682;28;20458;-70
2021/05/09 06:38:42;;;;;;;2.75;1.95;;;12.30;82.30;;;;;;5051895;28;20155;-69
2021/05/09 06:41:08;;;;;;;3.65;2.40;;;12.30;82.10;;;;;;5050926;28;20094;-69
2021/05/09 06:43:34;;;;;;;3.13;2.25;;;12.30;82.40;;;;;;5050614;28;20021;-69
2021/05/09 06:46:00;;;;;;;3.13;2.22;;;12.30;82.20;;;;;;5052492;28;20021;-69
2021/05/09 06:48:26;;;;;;;10.85;6.13;;;12.40;81.90;;;;;;5050624;28;20055;-73
2021/05/09 06:50:52;;;;;;;6.93;5.03;;;12.40;81.60;;;;;;5051108;28;20055;-69
2021/05/09 06:53:18;;;;;;;16.40;9.88;;;12.40;81.30;;;;;;5051218;28;20485;-69
2021/05/09 06:55:45;;;;;;;57.10;28.90;;;12.50;81.20;;;;;;5051790;28;20541;-69
2021/05/09 06:58:11;;;;;;;34.85;19.67;;;12.50;81.50;;;;;;5052406;28;20104;-70
2021/05/09 07:00:37;;;;;;;12.00;7.55;;;12.60;81.20;;;;;;5050414;28;20390;-70
2021/05/09 07:03:04;;;;;;;9.85;5.35;;;12.70;81.20;;;;;;5051230;28;20029;-69
2021/05/09 07:05:29;;;;;;;4.55;2.75;;;12.80;80.60;;;;;;5050453;28;20125;-70
2021/05/09 07:07:57;;;;;;;4.15;2.80;;;12.90;80.30;;;;;;5050875;28;20061;-69
2021/05/09 07:10:25;;;;;;;3.78;2.45;;;12.90;79.80;;;;;;5052268;28;20033;-69
2021/05/09 07:12:51;;;;;;;3.40;2.10;;;12.90;79.50;;;;;;5051700;28;20078;-69
2021/05/09 07:15:29;;;;;;;4.40;2.28;;;13.00;79.70;;;;;;5052285;28;20025;-69
2021/05/09 07:20:58;;;;;;;4.85;2.35;;;13.10;79.20;;;;;;5052579;28;20041;-69
2021/05/09 07:23:24;;;;;;;4.00;2.17;;;13.10;78.80;;;;;;5056190;28;20021;-69
2021/05/09 07:25:52;;;;;;;4.15;2.13;;;13.10;78.70;;;;;;5055557;28;20021;-70
2021/05/09 07:28:20;;;;;;;3.15;2.10;;;13.10;78.70;;;;;;5055826;28;20486;-69
2021/05/09 07:30:47;;;;;;;12.00;6.13;;;13.10;78.70;;;;;;5054051;28;20033;-69
2021/05/09 07:33:13;;;;;;;38.90;19.90;;;13.20;78.80;;;;;;5054447;28;20072;-69
2021/05/09 07:35:40;;;;;;;102.85;46.80;;;13.20;79.30;;;;;;5054018;28;20032;-69
2021/05/09 07:38:08;;;;;;;39.45;20.95;;;13.20;79.00;;;;;;5055827;28;20029;-70
2021/05/09 07:40:34;;;;;;;29.58;15.52;;;13.20;79.40;;;;;;5055330;28;20060;-70
2021/05/09 07:43:00;;;;;;;17.50;10.18;;;13.30;79.50;;;;;;5054723;28;20036;-70
2021/05/09 07:45:26;;;;;;;12.60;8.05;;;13.30;79.40;;;;;;5055836;28;20375;-70
2021/05/09 07:47:52;;;;;;;5.63;3.13;;;13.30;79.20;;;;;;5051617;28;20393;-71
2021/05/09 07:50:19;;;;;;;6.13;4.03;;;13.40;79.80;;;;;;5048533;28;20043;-71
2021/05/09 07:52:46;;;;;;;4.25;2.65;;;13.50;79.20;;;;;;5048234;28;20025;-70
2021/05/09 07:55:13;;;;;;;3.28;1.95;;;13.60;79.50;;;;;;5044876;28;20021;-70
2021/05/09 07:57:39;;;;;;;3.10;1.83;;;13.70;79.80;;;;;;5048234;28;20025;-70
2021/05/09 08:00:08;;;;;;;2.40;1.58;;;13.70;78.60;;;;;;5055077;28;20386;-70
2021/05/09 08:02:33;;;;;;;1.85;1.42;;;13.80;78.10;;;;;;5039360;28;20029;-70
2021/05/09 08:04:59;;;;;;;3.13;1.50;;;13.90;77.30;;;;;;5054010;28;20024;-70
2021/05/09 08:07:25;;;;;;;2.05;1.20;;;14.00;76.30;;;;;;5055254;28;20458;-70
2021/05/09 08:09:50;;;;;;;1.85;1.40;;;14.10;76.30;;;;;;5052842;28;20040;-70
2021/05/09 08:12:16;;;;;;;2.20;1.40;;;14.20;75.00;;;;;;5052744;28;20061;-69
2021/05/09 08:14:42;;;;;;;4.20;1.80;;;14.20;74.60;;;;;;5053657;28;20029;-69
2021/05/09 08:17:08;;;;;;;4.38;1.77;;;14.30;74.40;;;;;;5054119;28;20063;-70
2021/05/09 08:19:33;;;;;;;2.95;1.63;;;14.20;74.30;;;;;;5053864;28;20029;-70
2021/05/09 08:22:01;;;;;;;2.05;1.27;;;14.30;74.70;;;;;;5055434;28;20031;-70
2021/05/09 08:24:27;;;;;;;3.47;1.63;;;14.40;75.20;;;;;;5054665;28;20032;-70
2021/05/09 08:26:52;;;;;;;4.50;2.50;;;14.40;74.90;;;;;;5054571;28;20031;-70
2021/05/09 08:29:18;;;;;;;17.52;10.32;;;14.40;74.70;;;;;;5053882;28;20382;-70
2021/05/09 08:31:44;;;;;;;39.97;20.20;;;14.40;74.60;;;;;;5053829;28;20029;-70
2021/05/09 08:34:09;;;;;;;7.25;3.78;;;14.50;74.20;;;;;;5053829;28;20485;-69
2021/05/09 08:36:35;;;;;;;4.35;2.75;;;14.60;74.10;;;;;;5054818;28;20029;-70
2021/05/09 08:39:00;;;;;;;4.70;2.70;;;14.80;73.60;;;;;;5053940;28;20021;-70
2021/05/09 08:41:27;;;;;;;7.03;3.05;;;14.90;73.50;;;;;;5054536;28;20053;-70
2021/05/09 08:43:52;;;;;;;3.28;2.30;;;14.90;73.50;;;;;;5054568;28;20235;-69
2021/05/09 08:46:21;;;;;;;3.65;2.17;;;14.90;73.30;;;;;;5053724;28;20113;-70
2021/05/09 08:48:49;;;;;;;3.83;1.58;;;14.90;73.20;;;;;;5054476;28;20339;-70
2021/05/09 08:51:16;;;;;;;3.45;1.63;;;14.90;73.10;;;;;;5053597;28;20044;-70
2021/05/09 08:53:43;;;;;;;1.73;1.40;;;14.90;73.00;;;;;;5054161;28;20021;-70
2021/05/09 08:56:09;;;;;;;2.08;1.50;;;15.00;73.10;;;;;;5055038;28;20017;-69
2021/05/09 08:58:37;;;;;;;1.75;1.30;;;15.10;73.40;;;;;;5054125;28;20025;-70
2021/05/09 09:01:04;;;;;;;1.48;1.08;;;15.30;72.80;;;;;;5053570;28;20392;-70
2021/05/09 09:03:30;;;;;;;2.63;1.20;;;15.30;72.60;;;;;;5054682;28;20067;-69
2021/05/09 09:05:56;;;;;;;1.77;1.20;;;15.30;72.40;;;;;;5052760;28;20466;-70
2021/05/09 09:08:22;;;;;;;1.23;1.05;;;15.40;72.60;;;;;;5053149;28;20146;-70
2021/05/09 09:10:49;;;;;;;1.40;1.00;;;15.60;72.60;;;;;;5052348;28;20068;-70
2021/05/09 09:13:29;;;;;;;4.25;1.40;;;15.60;72.10;;;;;;5054324;28;20479;-70
2021/05/09 09:16:06;;;;;;;34.20;18.13;;;15.70;72.30;;;;;;5052454;28;20386;-70
2021/05/09 09:18:40;;;;;;;30.95;16.65;;;15.70;72.10;;;;;;5054426;28;20025;-70
2021/05/09 09:21:30;;;;;;;21.58;11.15;;;15.80;72.00;;;;;;5053282;28;20029;-69
2021/05/09 09:24:06;;;;;;;7.53;3.78;;;15.90;72.00;;;;;;5052598;28;20025;-70
2021/05/09 09:26:49;;;;;;;3.90;2.47;;;15.90;71.50;;;;;;5053095;28;20028;-69
2021/05/09 09:29:28;;;;;;;2.65;1.40;;;16.00;71.70;;;;;;5052997;28;20029;-68
2021/05/09 09:31:59;;;;;;;1.73;1.30;;;16.20;72.70;;;;;;5053280;28;20025;-70
2021/05/09 09:34:45;;;;;;;2.40;1.17;;;16.30;72.00;;;;;;5054245;28;20021;-70
2021/05/09 09:37:13;;;;;;;2.17;1.30;;;16.40;71.90;;;;;;5053817;28;20635;-70
2021/05/09 09:39:47;;;;;;;1.80;1.20;;;16.50;70.80;;;;;;5051844;28;20111;-70
2021/05/09 09:42:13;;;;;;;1.60;1.20;;;16.70;70.30;;;;;;5052891;28;20102;-70
2021/05/09 09:44:39;;;;;;;2.03;1.10;;;16.90;70.00;;;;;;5053370;28;20028;-70
2021/05/09 09:47:05;;;;;;;1.38;1.05;;;16.90;69.80;;;;;;5053810;28;20472;-70
2021/05/09 09:49:34;;;;;;;2.25;1.42;;;17.00;70.00;;;;;;5051958;28;20037;-70
2021/05/09 09:52:02;;;;;;;2.47;1.80;;;17.00;69.60;;;;;;5051837;28;20446;-69
2021/05/09 09:54:31;;;;;;;1.38;1.02;;;17.10;69.10;;;;;;5052633;28;20025;-69
2021/05/09 09:56:57;;;;;;;4.55;1.10;;;17.20;69.20;;;;;;5051680;28;20025;-70
2021/05/09 09:59:23;;;;;;;1.40;1.08;;;17.30;69.00;;;;;;5052314;28;20043;-70
2021/05/09 10:01:49;;;;;;;2.28;1.00;;;17.50;67.60;;;;;;5052905;28;20100;-70
2021/05/09 10:04:14;;;;;;;1.25;0.95;;;17.60;66.90;;;;;;5052377;28;20075;-69
2021/05/09 10:06:40;;;;;;;4.47;1.27;;;17.80;66.30;;;;;;5051584;28;20467;-70
2021/05/09 10:09:08;;;;;;;2.58;0.98;;;18.10;67.40;;;;;;5052081;28;20039;-69
2021/05/09 10:11:34;;;;;;;15.85;9.82;;;18.30;66.70;;;;;;5052061;28;20045;-70
2021/05/09 10:14:00;;;;;;;14.88;9.40;;;18.50;65.50;;;;;;5051408;28;20032;-70
2021/05/09 10:16:28;;;;;;;5.15;3.00;;;18.70;64.90;;;;;;5051947;28;20036;-71
2021/05/09 10:18:58;;;;;;;4.22;2.33;;;18.90;64.40;;;;;;5053227;28;20025;-70
2021/05/09 10:21:34;;;;;;;3.92;2.20;;;18.90;63.40;;;;;;5051885;28;20098;-70
2021/05/09 10:24:10;;;;;;;2.63;1.38;;;18.90;64.20;;;;;;5051293;28;20027;-71
2021/05/09 10:26:50;;;;;;;6.72;4.35;;;18.90;64.60;;;;;;5051675;28;20039;-70
2021/05/09 10:29:47;;;;;;;1.23;1.10;;;19.20;63.10;;;;;;5051638;28;20382;-70
2021/05/09 10:32:18;;;;;;;1.67;1.10;;;19.90;58.00;;;;;;5052971;28;20025;-71
2021/05/09 10:34:56;;;;;;;2.83;1.20;;;20.00;59.40;;;;;;5052229;28;20029;-71
2021/05/09 10:37:42;;;;;;;2.28;1.23;;;20.10;58.00;;;;;;5051451;28;20075;-71
2021/05/09 10:40:32;;;;;;;1.35;1.10;;;20.30;57.50;;;;;;5052558;28;20049;-70
2021/05/09 10:43:04;;;;;;;2.25;0.80;;;20.20;57.90;;;;;;5050934;28;20048;-70
2021/05/09 10:45:35;;;;;;;1.20;0.90;;;20.30;57.30;;;;;;5052690;28;20079;-70
2021/05/09 10:48:24;;;;;;;1.85;0.90;;;20.20;57.80;;;;;;5051985;28;20082;-70
2021/05/09 10:50:51;;;;;;;1.38;1.00;;;20.20;58.80;;;;;;5050792;28;20086;-71
2021/05/09 10:53:35;;;;;;;1.92;1.05;;;20.20;58.70;;;;;;5051065;28;20029;-70
2021/05/09 10:56:10;;;;;;;2.90;0.90;;;20.40;56.10;;;;;;5050635;28;20029;-71
2021/05/09 10:58:44;;;;;;;3.60;1.00;;;20.70;53.30;;;;;;5051144;28;20382;-70
2021/05/09 11:01:10;;;;;;;2.45;0.93;;;21.00;51.60;;;;;;5051163;28;20466;-71
2021/05/09 11:03:41;;;;;;;2.60;1.20;;;21.20;53.60;;;;;;5051120;28;20029;-70
2021/05/09 11:06:14;;;;;;;1.42;1.08;;;21.20;53.50;;;;;;5051131;28;20074;-70
2021/05/09 11:08:42;;;;;;;2.70;0.90;;;21.30;53.70;;;;;;5051998;28;20474;-71
2021/05/09 11:11:24;;;;;;;1.33;0.80;;;21.30;53.60;;;;;;5049333;28;20036;-70
2021/05/09 11:14:02;;;;;;;2.65;1.08;;;21.40;51.50;;;;;;5047665;28;20024;-70
2021/05/09 11:16:46;;;;;;;2.20;0.82;;;21.40;52.80;;;;;;5051001;28;20029;-70
2021/05/09 11:19:17;;;;;;;1.23;0.90;;;21.60;51.00;;;;;;5052051;28;20071;-70
2021/05/09 11:21:47;;;;;;;1.25;0.70;;;21.90;49.00;;;;;;5050369;28;20033;-70
2021/05/09 11:24:27;;;;;;;1.13;0.77;;;22.10;47.70;;;;;;5050442;28;20064;-70
2021/05/09 11:26:55;;;;;;;1.25;0.70;;;22.70;45.40;;;;;;5031686;28;20494;-70
2021/05/09 11:29:21;;;;;;;0.95;0.47;;;23.00;45.60;;;;;;5032279;28;20025;-70
2021/05/09 11:31:49;;;;;;;1.33;0.50;;;23.20;44.00;;;;;;5030496;28;20483;-70
2021/05/09 11:34:16;;;;;;;2.42;0.68;;;23.30;44.60;;;;;;5030729;28;20060;-70
2021/05/09 11:36:46;;;;;;;1.38;0.82;;;23.30;45.30;;;;;;5030914;28;20029;-71
2021/05/09 11:39:13;;;;;;;19.42;10.07;;;23.40;44.30;;;;;;5031401;28;20390;-69
2021/05/09 11:41:59;;;;;;;8.90;5.03;;;23.50;44.10;;;;;;5034493;28;20034;-70
2021/05/09 11:44:27;;;;;;;2.03;1.20;;;23.40;46.40;;;;;;5050851;28;20025;-70
2021/05/09 11:46:54;;;;;;;0.88;0.80;;;23.60;45.80;;;;;;5033484;28;20541;-71
2021/05/09 11:49:29;;;;;;;0.70;0.60;;;23.60;44.90;;;;;;5034108;28;20039;-70
2021/05/09 11:51:57;;;;;;;0.80;0.60;;;23.80;43.70;;;;;;5033680;28;20074;-70
2021/05/09 11:54:26;;;;;;;0.95;0.70;;;24.00;42.00;;;;;;5050612;28;20025;-70
2021/05/09 11:56:54;;;;;;;1.20;0.60;;;24.30;41.30;;;;;;5033331;28;20021;-70
2021/05/09 11:59:52;;;;;;;0.73;0.50;;;24.50;41.10;;;;;;5034047;28;20029;-71
2021/05/09 12:02:21;;;;;;;1.60;0.93;;;24.80;39.40;;;;;;5051892;28;20061;-70
2021/05/09 12:04:52;;;;;;;2.40;0.70;;;25.00;40.80;;;;;;5051229;28;20021;-70
2021/05/09 12:07:20;;;;;;;2.38;0.60;;;25.40;40.50;;;;;;5055614;28;20075;-70
2021/05/09 12:09:55;;;;;;;1.40;0.60;;;25.60;40.90;;;;;;5036960;28;20036;-71
2021/05/09 12:12:23;;;;;;;0.80;0.80;;;25.70;40.20;;;;;;5037752;28;20367;-70
2021/05/09 12:14:52;;;;;;;0.70;0.50;;;25.80;40.60;;;;;;5037028;28;20059;-71
2021/05/09 12:17:28;;;;;;;0.93;0.57;;;26.00;38.80;;;;;;5037498;28;20035;-70
2021/05/09 12:19:55;;;;;;;0.50;0.47;;;26.10;38.70;;;;;;5054714;28;20111;-70
2021/05/09 12:22:22;;;;;;;0.43;0.40;;;26.30;37.60;;;;;;5053991;28;20021;-71
2021/05/09 12:24:54;;;;;;;2.28;0.60;;;26.50;37.60;;;;;;5037001;28;20029;-71
2021/05/09 12:27:21;;;;;;;2.85;0.73;;;26.70;38.20;;;;;;5055469;28;20078;-70
2021/05/09 12:29:54;;;;;;;0.80;0.70;;;26.80;38.20;;;;;;5036879;28;20178;-74
2021/05/09 12:32:26;;;;;;;1.23;0.65;;;26.90;38.30;;;;;;5037387;28;20465;-69
2021/05/09 12:34:59;;;;;;;1.08;0.70;;;26.80;40.00;;;;;;5036650;28;20029;-71
2021/05/09 12:46:47;;;;;;;1.48;0.50;;;26.60;39.40;;;;;;5118172;23;20052;-70
2021/05/09 12:49:16;;;;;;;2.58;0.70;;;26.50;39.40;;;;;;5034320;28;20037;-71
2021/05/09 12:52:02;;;;;;;1.65;0.98;;;26.60;40.10;;;;;;5016771;28;20035;-71
2021/05/09 12:54:42;;;;;;;2.60;0.70;;;26.60;39.80;;;;;;5034879;28;20030;-71
2021/05/09 12:57:30;;;;;;;0.60;0.60;;;26.60;39.90;;;;;;5034768;28;20018;-71
2021/05/09 13:00:04;;;;;;;1.58;0.88;;;26.70;39.20;;;;;;5034408;28;20104;-71
2021/05/09 13:02:51;;;;;;;1.65;0.77;;;26.60;39.90;;;;;;5017052;28;20497;-71